sensor_id;sensor_type;location;lat;lon;timestamp;pressure;altitude;pressure_sealevel;temperature;humidity
13486;BME280;6815;59.336;17.998;2023-09-12T00:02:17;90848.56;;;-145.37;100.00
13486;BME280;6815;59.336;17.998;2023-09-12T00:04:42;90818.28;;;-145.37;100.00
13486;BME280;6815;59.336;17.998;2023-09-12T00:07:08;90705.22;;;-145.37;100.00
13486;BME280;6815;59.336;17.998;2023-09-12T00:09:33;90854.63;;;-145.37;100.00
13486;BME280;6815;59.336;17.998;2023-09-12T00:11:58;90890.94;;;-145.37;100.00
13486;BME280;6815;59.336;17.998;2023-09-12T00:14:24;90890.94;;;-145.37;100.00
13486;BME280;6815;59.336;17.998;2023-09-12T00:16:49;90735.50;;;-145.37;100.00
13486;BME280;6815;59.336;17.998;2023-09-12T00:19:17;90818.28;;;-145.37;100.00
13486;BME280;6815;59.336;17.998;2023-09-12T00:21:43;90757.69;;;-145.37;100.00
13486;BME280;6815;59.336;17.998;2023-09-12T00:24:08;90747.59;;;-145.37;100.00
13486;BME280;6815;59.336;17.998;2023-09-12T00:26:33;90872.78;;;-145.37;100.00
13486;BME280;6815;59.336;17.998;2023-09-12T00:28:59;90874.81;;;-145.37;100.00
13486;BME280;6815;59.336;17.998;2023-09-12T00:31:24;90743.56;;;-145.37;100.00
13486;BME280;6815;59.336;17.998;2023-09-12T00:33:50;90818.28;;;-145.37;100.00
13486;BME280;6815;59.336;17.998;2023-09-12T00:36:15;90794.03;;;-145.37;100.00
13486;BME280;6815;59.336;17.998;2023-09-12T00:38:41;90870.75;;;-145.37;100.00
13486;BME280;6815;59.336;17.998;2023-09-12T00:41:06;90864.69;;;-145.37;100.00
13486;BME280;6815;59.336;17.998;2023-09-12T00:43:31;90882.88;;;-145.37;100.00
13486;BME280;6815;59.336;17.998;2023-09-12T00:45:57;90830.38;;;-145.37;100.00
13486;BME280;6815;59.336;17.998;2023-09-12T00:48:23;90769.81;;;-145.37;100.00
13486;BME280;6815;59.336;17.998;2023-09-12T00:50:49;90783.94;;;-145.37;100.00
13486;BME280;6815;59.336;17.998;2023-09-12T00:53:15;90870.75;;;-145.37;100.00
13486;BME280;6815;59.336;17.998;2023-09-12T00:55:45;90862.69;;;-145.37;100.00
13486;BME280;6815;59.336;17.998;2023-09-12T00:58:12;90668.88;;;-145.37;100.00
13486;BME280;6815;59.336;17.998;2023-09-12T01:00:40;90721.38;;;-145.37;100.00
13486;BME280;6815;59.336;17.998;2023-09-12T01:03:05;90848.56;;;-145.37;100.00
13486;BME280;6815;59.336;17.998;2023-09-12T01:05:32;90788.00;;;-145.37;100.00
13486;BME280;6815;59.336;17.998;2023-09-12T01:07:59;90826.34;;;-145.37;100.00
13486;BME280;6815;59.336;17.998;2023-09-12T01:10:25;91365.44;;;-145.37;100.00
13486;BME280;6815;59.336;17.998;2023-09-12T01:12:51;90870.75;;;-145.37;100.00
13486;BME280;6815;59.336;17.998;2023-09-12T01:15:17;90838.47;;;-145.37;100.00
13486;BME280;6815;59.336;17.998;2023-09-12T01:17:43;90842.50;;;-145.37;100.00
13486;BME280;6815;59.336;17.998;2023-09-12T01:20:16;91407.84;;;-145.37;100.00
13486;BME280;6815;59.336;17.998;2023-09-12T01:28:12;90711.28;;;-145.37;100.00
13486;BME280;6815;59.336;17.998;2023-09-12T01:30:42;90846.53;;;-145.37;100.00
13486;BME280;6815;59.336;17.998;2023-09-12T01:33:07;90751.66;;;-145.37;100.00
13486;BME280;6815;59.336;17.998;2023-09-12T01:35:33;90798.09;;;-145.37;100.00
13486;BME280;6815;59.336;17.998;2023-09-12T01:37:59;90745.59;;;-145.37;100.00
13486;BME280;6815;59.336;17.998;2023-09-12T01:40:36;90822.31;;;-145.37;100.00
13486;BME280;6815;59.336;17.998;2023-09-12T01:43:04;90798.09;;;-145.37;100.00
13486;BME280;6815;59.336;17.998;2023-09-12T01:45:32;90862.69;;;-145.37;100.00
13486;BME280;6815;59.336;17.998;2023-09-12T01:47:58;90882.88;;;-145.37;100.00
13486;BME280;6815;59.336;17.998;2023-09-12T01:50:25;90836.44;;;-145.37;100.00
13486;BME280;6815;59.336;17.998;2023-09-12T01:52:53;90874.81;;;-145.37;100.00
13486;BME280;6815;59.336;17.998;2023-09-12T01:55:19;90773.84;;;-145.37;100.00
13486;BME280;6815;59.336;17.998;2023-09-12T01:57:45;90864.69;;;-145.37;100.00
13486;BME280;6815;59.336;17.998;2023-09-12T02:00:12;90810.19;;;-145.37;100.00
13486;BME280;6815;59.336;17.998;2023-09-12T02:02:38;90729.44;;;-145.37;100.00
13486;BME280;6815;59.336;17.998;2023-09-12T02:05:16;90820.28;;;-145.37;100.00
13486;BME280;6815;59.336;17.998;2023-09-12T02:07:45;90757.69;;;-145.37;100.00
13486;BME280;6815;59.336;17.998;2023-09-12T02:10:12;90858.66;;;-145.37;100.00
13486;BME280;6815;59.336;17.998;2023-09-12T02:12:38;90870.75;;;-145.37;100.00
13486;BME280;6815;59.336;17.998;2023-09-12T02:15:04;90709.25;;;-145.37;100.00
13486;BME280;6815;59.336;17.998;2023-09-12T02:17:29;90846.53;;;-145.37;100.00
13486;BME280;6815;59.336;17.998;2023-09-12T02:19:55;90848.56;;;-145.37;100.00
13486;BME280;6815;59.336;17.998;2023-09-12T02:22:20;90810.19;;;-145.37;100.00
13486;BME280;6815;59.336;17.998;2023-09-12T02:24:46;90830.38;;;-145.37;100.00
13486;BME280;6815;59.336;17.998;2023-09-12T02:27:11;90820.28;;;-145.37;100.00
13486;BME280;6815;59.336;17.998;2023-09-12T02:29:39;90834.41;;;-145.37;100.00
13486;BME280;6815;59.336;17.998;2023-09-12T02:32:05;90816.25;;;-145.37;100.00
13486;BME280;6815;59.336;17.998;2023-09-12T02:34:30;90818.28;;;-145.37;100.00
13486;BME280;6815;59.336;17.998;2023-09-12T02:36:55;90838.47;;;-145.37;100.00
13486;BME280;6815;59.336;17.998;2023-09-12T02:39:21;90838.47;;;-145.37;100.00
13486;BME280;6815;59.336;17.998;2023-09-12T02:41:46;90792.03;;;-145.37;100.00
13486;BME280;6815;59.336;17.998;2023-09-12T02:44:11;90790.00;;;-145.37;100.00
13486;BME280;6815;59.336;17.998;2023-09-12T02:46:37;90810.19;;;-145.37;100.00
13486;BME280;6815;59.336;17.998;2023-09-12T02:49:03;90783.94;;;-145.37;100.00
13486;BME280;6815;59.336;17.998;2023-09-12T02:51:28;90824.31;;;-145.37;100.00
13486;BME280;6815;59.336;17.998;2023-09-12T02:53:54;91686.50;;;-145.37;100.00
13486;BME280;6815;59.336;17.998;2023-09-12T02:56:19;90842.50;;;-145.37;100.00
13486;BME280;6815;59.336;17.998;2023-09-12T02:58:48;90882.88;;;-145.37;100.00
13486;BME280;6815;59.336;17.998;2023-09-12T03:01:18;90838.47;;;-145.37;100.00
13486;BME280;6815;59.336;17.998;2023-09-12T03:03:46;90842.50;;;-145.37;100.00
13486;BME280;6815;59.336;17.998;2023-09-12T03:06:12;90862.69;;;-145.37;100.00
13486;BME280;6815;59.336;17.998;2023-09-12T03:08:40;90834.41;;;-145.37;100.00
13486;BME280;6815;59.336;17.998;2023-09-12T03:11:05;90842.50;;;-145.37;100.00
13486;BME280;6815;59.336;17.998;2023-09-12T03:13:32;91032.28;;;-145.37;100.00
13486;BME280;6815;59.336;17.998;2023-09-12T03:15:58;90864.69;;;-145.37;100.00
13486;BME280;6815;59.336;17.998;2023-09-12T03:18:23;90886.91;;;-145.37;100.00
13486;BME280;6815;59.336;17.998;2023-09-12T03:20:49;90792.03;;;-145.37;100.00
13486;BME280;6815;59.336;17.998;2023-09-12T03:23:14;90765.78;;;-145.37;100.00
13486;BME280;6815;59.336;17.998;2023-09-12T03:25:40;90765.78;;;-145.37;100.00
13486;BME280;6815;59.336;17.998;2023-09-12T03:28:06;90842.50;;;-145.37;100.00
13486;BME280;6815;59.336;17.998;2023-09-12T03:30:36;90854.63;;;-145.37;100.00
13486;BME280;6815;59.336;17.998;2023-09-12T03:33:02;90745.59;;;-145.37;100.00
13486;BME280;6815;59.336;17.998;2023-09-12T03:35:28;90757.69;;;-145.37;100.00
13486;BME280;6815;59.336;17.998;2023-09-12T03:37:54;90838.47;;;-145.37;100.00
13486;BME280;6815;59.336;17.998;2023-09-12T03:40:20;91704.66;;;-145.37;100.00
13486;BME280;6815;59.336;17.998;2023-09-12T03:42:45;90820.28;;;-145.37;100.00
13486;BME280;6815;59.336;17.998;2023-09-12T03:45:11;90884.91;;;-145.37;100.00
13486;BME280;6815;59.336;17.998;2023-09-12T03:47:36;90822.31;;;-145.37;100.00
13486;BME280;6815;59.336;17.998;2023-09-12T03:50:02;90854.63;;;-145.37;100.00
13486;BME280;6815;59.336;17.998;2023-09-12T03:52:28;90870.75;;;-145.37;100.00
13486;BME280;6815;59.336;17.998;2023-09-12T03:54:53;90824.31;;;-145.37;100.00
13486;BME280;6815;59.336;17.998;2023-09-12T03:57:19;90927.28;;;-145.37;100.00
13486;BME280;6815;59.336;17.998;2023-09-12T03:59:44;90672.91;;;-145.37;100.00
13486;BME280;6815;59.336;17.998;2023-09-12T04:02:12;90870.75;;;-145.37;100.00
13486;BME280;6815;59.336;17.998;2023-09-12T04:04:37;90798.09;;;-145.37;100.00
13486;BME280;6815;59.336;17.998;2023-09-12T04:07:03;90862.69;;;-145.37;100.00
13486;BME280;6815;59.336;17.998;2023-09-12T04:09:29;90725.41;;;-145.37;100.00
13486;BME280;6815;59.336;17.998;2023-09-12T04:11:54;90832.41;;;-145.37;100.00
13486;BME280;6815;59.336;17.998;2023-09-12T04:14:20;90749.63;;;-145.37;100.00
13486;BME280;6815;59.336;17.998;2023-09-12T04:16:46;90921.22;;;-145.37;100.00
13486;BME280;6815;59.336;17.998;2023-09-12T04:19:13;90820.28;;;-145.37;100.00
13486;BME280;6815;59.336;17.998;2023-09-12T04:21:38;90814.22;;;-145.37;100.00
13486;BME280;6815;59.336;17.998;2023-09-12T04:24:04;90882.88;;;-145.37;100.00
13486;BME280;6815;59.336;17.998;2023-09-12T04:26:30;90755.69;;;-145.37;100.00
13486;BME280;6815;59.336;17.998;2023-09-12T04:28:55;90838.47;;;-145.37;100.00
13486;BME280;6815;59.336;17.998;2023-09-12T04:31:20;90838.47;;;-145.37;100.00
13486;BME280;6815;59.336;17.998;2023-09-12T04:33:46;90854.63;;;-145.37;100.00
13486;BME280;6815;59.336;17.998;2023-09-12T04:36:11;90870.75;;;-145.37;100.00
13486;BME280;6815;59.336;17.998;2023-09-12T04:38:36;90895.00;;;-145.37;100.00
13486;BME280;6815;59.336;17.998;2023-09-12T04:41:03;90693.09;;;-145.37;100.00
13486;BME280;6815;59.336;17.998;2023-09-12T04:43:32;90965.66;;;-145.37;100.00
13486;BME280;6815;59.336;17.998;2023-09-12T04:45:58;90884.91;;;-145.37;100.00
13486;BME280;6815;59.336;17.998;2023-09-12T04:48:23;90915.19;;;-145.37;100.00
13486;BME280;6815;59.336;17.998;2023-09-12T04:50:49;90836.44;;;-145.37;100.00
13486;BME280;6815;59.336;17.998;2023-09-12T04:53:14;90820.28;;;-145.37;100.00
13486;BME280;6815;59.336;17.998;2023-09-12T04:55:40;90890.94;;;-145.37;100.00
13486;BME280;6815;59.336;17.998;2023-09-12T04:58:06;90860.66;;;-145.37;100.00
13486;BME280;6815;59.336;17.998;2023-09-12T05:00:32;90668.88;;;-145.37;100.00
13486;BME280;6815;59.336;17.998;2023-09-12T05:02:57;90592.16;;;-145.37;100.00
13486;BME280;6815;59.336;17.998;2023-09-12T05:05:22;90806.16;;;-145.37;100.00
13486;BME280;6815;59.336;17.998;2023-09-12T05:07:48;90919.22;;;-145.37;100.00
13486;BME280;6815;59.336;17.998;2023-09-12T05:10:13;90743.56;;;-145.37;100.00
13486;BME280;6815;59.336;17.998;2023-09-12T05:12:39;90832.41;;;-145.37;100.00
13486;BME280;6815;59.336;17.998;2023-09-12T05:15:05;90848.56;;;-145.37;100.00
13486;BME280;6815;59.336;17.998;2023-09-12T05:17:30;90854.63;;;-145.37;100.00
13486;BME280;6815;59.336;17.998;2023-09-12T05:19:55;90868.75;;;-145.37;100.00
13486;BME280;6815;59.336;17.998;2023-09-12T05:22:21;90856.63;;;-145.37;100.00
13486;BME280;6815;59.336;17.998;2023-09-12T05:24:47;90747.59;;;-145.37;100.00
13486;BME280;6815;59.336;17.998;2023-09-12T05:27:12;90856.63;;;-145.37;100.00
13486;BME280;6815;59.336;17.998;2023-09-12T05:29:38;90826.34;;;-145.37;100.00
13486;BME280;6815;59.336;17.998;2023-09-12T05:32:04;90834.41;;;-145.37;100.00
13486;BME280;6815;59.336;17.998;2023-09-12T05:34:29;90709.25;;;-145.37;100.00
13486;BME280;6815;59.336;17.998;2023-09-12T05:36:56;90798.09;;;-145.37;100.00
13486;BME280;6815;59.336;17.998;2023-09-12T05:39:22;91141.31;;;-145.37;100.00
13486;BME280;6815;59.336;17.998;2023-09-12T05:41:48;90777.88;;;-145.37;100.00
13486;BME280;6815;59.336;17.998;2023-09-12T05:44:14;90806.16;;;-145.37;100.00
13486;BME280;6815;59.336;17.998;2023-09-12T05:46:47;90856.63;;;-145.37;100.00
13486;BME280;6815;59.336;17.998;2023-09-12T05:49:14;90842.50;;;-145.37;100.00
13486;BME280;6815;59.336;17.998;2023-09-12T05:51:40;90862.69;;;-145.37;100.00
13486;BME280;6815;59.336;17.998;2023-09-12T05:54:05;90882.88;;;-145.37;100.00
13486;BME280;6815;59.336;17.998;2023-09-12T05:56:31;90773.84;;;-145.37;100.00
13486;BME280;6815;59.336;17.998;2023-09-12T05:58:56;90844.50;;;-145.37;100.00
13486;BME280;6815;59.336;17.998;2023-09-12T06:01:22;90785.97;;;-145.37;100.00
13486;BME280;6815;59.336;17.998;2023-09-12T06:03:47;90814.22;;;-145.37;100.00
13486;BME280;6815;59.336;17.998;2023-09-12T06:06:12;90814.22;;;-145.37;100.00
13486;BME280;6815;59.336;17.998;2023-09-12T06:08:38;90856.63;;;-145.37;100.00
13486;BME280;6815;59.336;17.998;2023-09-12T06:11:04;90862.69;;;-145.37;100.00
13486;BME280;6815;59.336;17.998;2023-09-12T06:13:29;90796.06;;;-145.37;100.00
13486;BME280;6815;59.336;17.998;2023-09-12T06:15:55;90644.66;;;-145.37;100.00
13486;BME280;6815;59.336;17.998;2023-09-12T06:18:20;90800.09;;;-145.37;100.00
13486;BME280;6815;59.336;17.998;2023-09-12T06:20:46;90858.66;;;-145.37;100.00
13486;BME280;6815;59.336;17.998;2023-09-12T06:23:11;90824.31;;;-145.37;100.00
13486;BME280;6815;59.336;17.998;2023-09-12T06:25:37;90798.09;;;-145.37;100.00
13486;BME280;6815;59.336;17.998;2023-09-12T06:28:03;90747.59;;;-145.37;100.00
13486;BME280;6815;59.336;17.998;2023-09-12T06:30:28;90781.94;;;-145.37;100.00
13486;BME280;6815;59.336;17.998;2023-09-12T06:32:53;90749.63;;;-145.37;100.00
13486;BME280;6815;59.336;17.998;2023-09-12T06:35:19;90816.25;;;-145.37;100.00
13486;BME280;6815;59.336;17.998;2023-09-12T06:37:44;90816.25;;;-145.37;100.00
13486;BME280;6815;59.336;17.998;2023-09-12T06:40:10;90838.47;;;-145.37;100.00
13486;BME280;6815;59.336;17.998;2023-09-12T06:42:35;90777.88;;;-145.37;100.00
13486;BME280;6815;59.336;17.998;2023-09-12T06:45:01;90818.28;;;-145.37;100.00
13486;BME280;6815;59.336;17.998;2023-09-12T06:47:26;90846.53;;;-145.37;100.00
13486;BME280;6815;59.336;17.998;2023-09-12T06:49:51;90699.16;;;-145.37;100.00
13486;BME280;6815;59.336;17.998;2023-09-12T06:52:17;90753.66;;;-145.37;100.00
13486;BME280;6815;59.336;17.998;2023-09-12T06:54:42;90816.25;;;-145.37;100.00
13486;BME280;6815;59.336;17.998;2023-09-12T06:57:08;90648.69;;;-145.37;100.00
13486;BME280;6815;59.336;17.998;2023-09-12T06:59:33;90594.19;;;-145.37;100.00
13486;BME280;6815;59.336;17.998;2023-09-12T07:01:59;90834.41;;;-145.37;100.00
13486;BME280;6815;59.336;17.998;2023-09-12T07:04:25;90705.22;;;-145.37;100.00
13486;BME280;6815;59.336;17.998;2023-09-12T07:06:50;90676.94;;;-145.37;100.00
13486;BME280;6815;59.336;17.998;2023-09-12T07:09:16;90777.88;;;-145.37;100.00
13486;BME280;6815;59.336;17.998;2023-09-12T07:11:42;90790.00;;;-145.37;100.00
13486;BME280;6815;59.336;17.998;2023-09-12T07:14:09;90715.31;;;-145.37;100.00
13486;BME280;6815;59.336;17.998;2023-09-12T07:16:35;90767.81;;;-145.37;100.00
13486;BME280;6815;59.336;17.998;2023-09-12T07:19:01;90743.56;;;-145.37;100.00
13486;BME280;6815;59.336;17.998;2023-09-12T07:21:26;90709.25;;;-145.37;100.00
13486;BME280;6815;59.336;17.998;2023-09-12T07:23:52;90725.41;;;-145.37;100.00
13486;BME280;6815;59.336;17.998;2023-09-12T07:26:17;90741.56;;;-145.37;100.00
13486;BME280;6815;59.336;17.998;2023-09-12T07:28:42;90794.03;;;-145.37;100.00
13486;BME280;6815;59.336;17.998;2023-09-12T07:31:08;90743.56;;;-145.37;100.00
13486;BME280;6815;59.336;17.998;2023-09-12T07:33:33;90737.50;;;-145.37;100.00
13486;BME280;6815;59.336;17.998;2023-09-12T07:35:59;90755.69;;;-145.37;100.00
13486;BME280;6815;59.336;17.998;2023-09-12T07:38:25;90600.25;;;-145.37;100.00
13486;BME280;6815;59.336;17.998;2023-09-12T07:40:51;90737.50;;;-145.37;100.00
13486;BME280;6815;59.336;17.998;2023-09-12T07:43:17;90604.28;;;-145.37;100.00
13486;BME280;6815;59.336;17.998;2023-09-12T07:45:42;90642.63;;;-145.37;100.00
13486;BME280;6815;59.336;17.998;2023-09-12T07:48:09;90737.50;;;-145.37;100.00
13486;BME280;6815;59.336;17.998;2023-09-12T07:50:36;90753.66;;;-145.37;100.00
13486;BME280;6815;59.336;17.998;2023-09-12T07:53:04;90721.38;;;-145.37;100.00
13486;BME280;6815;59.336;17.998;2023-09-12T07:55:30;90695.13;;;-145.37;100.00
13486;BME280;6815;59.336;17.998;2023-09-12T07:57:59;90751.66;;;-145.37;100.00
13486;BME280;6815;59.336;17.998;2023-09-12T08:00:25;90707.22;;;-145.37;100.00
13486;BME280;6815;59.336;17.998;2023-09-12T08:02:50;90586.09;;;-145.37;100.00
13486;BME280;6815;59.336;17.998;2023-09-12T08:05:16;90628.50;;;-145.37;100.00
13486;BME280;6815;59.336;17.998;2023-09-12T08:07:41;90602.25;;;-145.37;100.00
13486;BME280;6815;59.336;17.998;2023-09-12T08:10:07;90636.56;;;-145.37;100.00
13486;BME280;6815;59.336;17.998;2023-09-12T08:12:32;90656.75;;;-145.37;100.00
13486;BME280;6815;59.336;17.998;2023-09-12T08:14:58;90622.44;;;-145.37;100.00
13486;BME280;6815;59.336;17.998;2023-09-12T08:17:24;90672.91;;;-145.37;100.00
13486;BME280;6815;59.336;17.998;2023-09-12T08:19:49;91458.31;;;-145.37;100.00
13486;BME280;6815;59.336;17.998;2023-09-12T08:22:15;90565.91;;;-145.37;100.00
13486;BME280;6815;59.336;17.998;2023-09-12T08:24:40;90519.50;;;-145.37;100.00
13486;BME280;6815;59.336;17.998;2023-09-12T08:27:06;90612.34;;;-145.37;100.00
13486;BME280;6815;59.336;17.998;2023-09-12T08:29:33;90626.47;;;-145.37;100.00
13486;BME280;6815;59.336;17.998;2023-09-12T08:31:58;90479.13;;;-145.37;100.00
13486;BME280;6815;59.336;17.998;2023-09-12T08:34:24;90582.06;;;-145.37;100.00
13486;BME280;6815;59.336;17.998;2023-09-12T08:36:50;90604.28;;;-145.37;100.00
13486;BME280;6815;59.336;17.998;2023-09-12T08:39:23;90626.47;;;-145.37;100.00
13486;BME280;6815;59.336;17.998;2023-09-12T08:41:49;90644.66;;;-145.37;100.00
13486;BME280;6815;59.336;17.998;2023-09-12T08:44:15;90648.69;;;-145.37;100.00
13486;BME280;6815;59.336;17.998;2023-09-12T08:46:42;90610.34;;;-145.37;100.00
13486;BME280;6815;59.336;17.998;2023-09-12T08:49:07;90458.94;;;-145.37;100.00
13486;BME280;6815;59.336;17.998;2023-09-12T08:51:35;90604.28;;;-145.37;100.00
13486;BME280;6815;59.336;17.998;2023-09-12T08:54:00;90622.44;;;-145.37;100.00
13486;BME280;6815;59.336;17.998;2023-09-12T08:56:29;90551.78;;;-145.37;100.00
13486;BME280;6815;59.336;17.998;2023-09-12T08:58:56;90652.72;;;-145.37;100.00
13486;BME280;6815;59.336;17.998;2023-09-12T09:01:23;90559.88;;;-145.37;100.00
13486;BME280;6815;59.336;17.998;2023-09-12T09:03:51;90549.78;;;-145.37;100.00
13486;BME280;6815;59.336;17.998;2023-09-12T09:06:17;90608.31;;;-145.37;100.00
13486;BME280;6815;59.336;17.998;2023-09-12T09:08:44;90616.38;;;-145.37;100.00
13486;BME280;6815;59.336;17.998;2023-09-12T09:11:10;90594.19;;;-145.37;100.00
13486;BME280;6815;59.336;17.998;2023-09-12T09:13:36;90559.88;;;-145.37;100.00
13486;BME280;6815;59.336;17.998;2023-09-12T09:16:18;90586.09;;;-145.37;100.00
13486;BME280;6815;59.336;17.998;2023-09-12T09:19:04;90527.56;;;-145.37;100.00
13486;BME280;6815;59.336;17.998;2023-09-12T09:21:36;90604.28;;;-145.37;100.00
13486;BME280;6815;59.336;17.998;2023-09-12T09:24:05;90626.47;;;-145.37;100.00
13486;BME280;6815;59.336;17.998;2023-09-12T09:26:45;90592.16;;;-145.37;100.00
13486;BME280;6815;59.336;17.998;2023-09-12T09:29:15;90460.94;;;-145.37;100.00
13486;BME280;6815;59.336;17.998;2023-09-12T09:31:42;90628.50;;;-145.37;100.00
13486;BME280;6815;59.336;17.998;2023-09-12T09:34:27;90569.97;;;-145.37;100.00
13486;BME280;6815;59.336;17.998;2023-09-12T09:36:56;90491.22;;;-145.37;100.00
13486;BME280;6815;59.336;17.998;2023-09-12T09:39:27;90551.78;;;-145.37;100.00
13486;BME280;6815;59.336;17.998;2023-09-12T09:41:56;90567.94;;;-145.37;100.00
13486;BME280;6815;59.336;17.998;2023-09-12T09:44:24;90588.13;;;-145.37;100.00
13486;BME280;6815;59.336;17.998;2023-09-12T09:46:54;90444.78;;;-145.37;99.62
13486;BME280;6815;59.336;17.998;2023-09-12T09:49:20;90485.16;;;-145.37;99.23
13486;BME280;6815;59.336;17.998;2023-09-12T09:51:47;90464.97;;;-145.37;99.09
13486;BME280;6815;59.336;17.998;2023-09-12T09:54:13;90509.41;;;-145.37;98.65
13486;BME280;6815;59.336;17.998;2023-09-12T09:56:49;90745.59;;;-145.37;97.57
13486;BME280;6815;59.336;17.998;2023-09-12T09:59:16;90355.97;;;-145.37;97.62
13486;BME280;6815;59.336;17.998;2023-09-12T10:01:44;90497.28;;;-145.37;97.26
13486;BME280;6815;59.336;17.998;2023-09-12T10:04:10;90335.78;;;-145.37;97.42
13486;BME280;6815;59.336;17.998;2023-09-12T10:06:37;90495.25;;;-145.37;97.35
13486;BME280;6815;59.336;17.998;2023-09-12T10:09:09;90333.78;;;-145.37;97.48
13486;BME280;6815;59.336;17.998;2023-09-12T10:11:37;90505.34;;;-145.37;96.99
13486;BME280;6815;59.336;17.998;2023-09-12T10:14:04;90499.31;;;-145.37;97.04
13486;BME280;6815;59.336;17.998;2023-09-12T10:16:33;90489.22;;;-145.37;97.06
13486;BME280;6815;59.336;17.998;2023-09-12T10:21:30;90507.38;;;-145.37;97.12
13486;BME280;6815;59.336;17.998;2023-09-12T10:23:59;90467.00;;;-145.37;97.06
13486;BME280;6815;59.336;17.998;2023-09-12T10:26:25;90311.56;;;-145.37;96.98
13486;BME280;6815;59.336;17.998;2023-09-12T10:28:51;90469.03;;;-145.37;96.72
13486;BME280;6815;59.336;17.998;2023-09-12T10:31:19;91036.31;;;-145.37;96.73
13486;BME280;6815;59.336;17.998;2023-09-12T10:33:44;90454.88;;;-145.37;96.53
13486;BME280;6815;59.336;17.998;2023-09-12T10:36:11;90414.50;;;-145.37;96.35
13486;BME280;6815;59.336;17.998;2023-09-12T10:38:44;90477.09;;;-145.37;96.15
13486;BME280;6815;59.336;17.998;2023-09-12T10:41:14;90410.47;;;-145.37;95.91
13486;BME280;6815;59.336;17.998;2023-09-12T10:43:41;90232.84;;;-145.37;95.78
13486;BME280;6815;59.336;17.998;2023-09-12T10:46:07;90414.50;;;-145.37;95.98
13486;BME280;6815;59.336;17.998;2023-09-12T10:48:34;90426.63;;;-145.37;96.23
13486;BME280;6815;59.336;17.998;2023-09-12T10:51:01;90430.66;;;-145.37;96.48
13486;BME280;6815;59.336;17.998;2023-09-12T10:53:30;90507.38;;;-145.37;96.67
13486;BME280;6815;59.336;17.998;2023-09-12T10:56:19;90467.00;;;-145.37;96.34
13486;BME280;6815;59.336;17.998;2023-09-12T11:01:33;90464.97;;;-145.37;95.35
13486;BME280;6815;59.336;17.998;2023-09-12T11:04:04;90372.13;;;-145.37;94.90
13486;BME280;6815;59.336;17.998;2023-09-12T11:06:44;90450.84;;;-145.37;95.04
13486;BME280;6815;59.336;17.998;2023-09-12T11:11:39;90446.81;;;-145.37;95.20
13486;BME280;6815;59.336;17.998;2023-09-12T11:14:05;90448.84;;;-145.37;94.89
13486;BME280;6815;59.336;17.998;2023-09-12T11:16:32;90279.28;;;-145.37;95.18
13486;BME280;6815;59.336;17.998;2023-09-12T11:19:16;90321.66;;;-145.37;94.72
13486;BME280;6815;59.336;17.998;2023-09-12T11:21:47;90406.44;;;-145.37;94.80
13486;BME280;6815;59.336;17.998;2023-09-12T11:24:14;90422.59;;;-145.37;94.43
13486;BME280;6815;59.336;17.998;2023-09-12T11:26:59;90295.41;;;-145.37;94.31
13486;BME280;6815;59.336;17.998;2023-09-12T11:29:36;90287.34;;;-145.37;94.12
13486;BME280;6815;59.336;17.998;2023-09-12T11:32:03;90349.91;;;-145.37;93.68
13486;BME280;6815;59.336;17.998;2023-09-12T11:34:51;90376.16;;;-145.37;94.19
13486;BME280;6815;59.336;17.998;2023-09-12T11:37:26;90228.81;;;-145.37;93.64
13486;BME280;6815;59.336;17.998;2023-09-12T11:39:53;90297.44;;;-145.37;93.65
13486;BME280;6815;59.336;17.998;2023-09-12T11:42:18;90305.50;;;-145.37;92.94
13486;BME280;6815;59.336;17.998;2023-09-12T11:44:44;91238.22;;;-145.37;92.96
13486;BME280;6815;59.336;17.998;2023-09-12T11:47:12;90394.31;;;-145.37;92.89
13486;BME280;6815;59.336;17.998;2023-09-12T11:49:39;90333.78;;;-145.37;93.34
13486;BME280;6815;59.336;17.998;2023-09-12T11:52:13;90360.00;;;-145.37;93.28
13486;BME280;6815;59.336;17.998;2023-09-12T11:54:40;90376.16;;;-145.37;93.54
13486;BME280;6815;59.336;17.998;2023-09-12T11:57:10;90364.06;;;-145.37;93.14
13486;BME280;6815;59.336;17.998;2023-09-12T11:59:40;90386.25;;;-145.37;93.11
13486;BME280;6815;59.336;17.998;2023-09-12T12:02:07;90386.25;;;-145.37;92.53
13486;BME280;6815;59.336;17.998;2023-09-12T12:04:33;90309.56;;;-145.37;92.94
13486;BME280;6815;59.336;17.998;2023-09-12T12:06:59;90384.25;;;-145.37;92.73
13486;BME280;6815;59.336;17.998;2023-09-12T12:09:26;90374.16;;;-145.37;92.93
13486;BME280;6815;59.336;17.998;2023-09-12T12:11:51;90380.19;;;-145.37;93.56
13486;BME280;6815;59.336;17.998;2023-09-12T12:14:17;90137.97;;;-145.37;93.31
13486;BME280;6815;59.336;17.998;2023-09-12T12:16:45;90351.94;;;-145.37;93.04
13486;BME280;6815;59.336;17.998;2023-09-12T12:19:14;90285.31;;;-145.37;93.34
13486;BME280;6815;59.336;17.998;2023-09-12T12:21:41;90323.69;;;-145.37;93.52
13486;BME280;6815;59.336;17.998;2023-09-12T12:24:11;90329.72;;;-145.37;92.97
13486;BME280;6815;59.336;17.998;2023-09-12T12:26:41;90335.78;;;-145.37;92.54
13486;BME280;6815;59.336;17.998;2023-09-12T12:29:06;90071.38;;;-145.37;92.23
13486;BME280;6815;59.336;17.998;2023-09-12T12:31:32;90218.72;;;-145.37;92.04
13486;BME280;6815;59.336;17.998;2023-09-12T12:33:57;90366.06;;;-145.37;91.83
13486;BME280;6815;59.336;17.998;2023-09-12T12:36:24;90265.13;;;-145.37;91.98
13486;BME280;6815;59.336;17.998;2023-09-12T12:38:50;90341.84;;;-145.37;91.89
13486;BME280;6815;59.336;17.998;2023-09-12T12:41:21;90358.00;;;-145.37;92.19
13486;BME280;6815;59.336;17.998;2023-09-12T12:43:50;90321.66;;;-145.37;92.19
13486;BME280;6815;59.336;17.998;2023-09-12T12:46:21;90321.66;;;-145.37;92.07